Terminal Aerodrome Forecast
Issued by NWS

Home | Current Version | Previous Version | Text Only | Print | Product List | Glossary On
Versions: 1 2 3 4 5 6 7 8 9 10 11 12
000
FTUS45 KABQ 180546
TAFFMN
TAF
KFMN 180546Z 1806/1906 31025G35KT P6SM VCSH OVC050
     FM180700 28011KT P6SM SKC
      TEMPO 1807/1809 29014G24KT
     FM190200 VRB05KT P6SM SKC=

USA.gov is the U.S. government's official web portal to all federal, state and local government web resources and services.